Flight Track Log - Related Links

Times and Time Zones

All times are in EDT time to prevent confusion due to time zone crossing. See the EJA952 flight status page for this flight to view local times or setup timezone preferences in your user account.

Time Position Orientation Groundspeed Altitude Reporting Facility
EDT Latitude Longitude Course Direction KTS MPH feet Rate Location/Type
Tue 04:07:26 PM 44.4969 -73.3975 186° South 264 304 9,200  Level Boston Center
Tue 04:08:26 PM 44.4239 -73.4050 184° South 272 313 11,400 2,050 Climbing Boston Center
Tue 04:09:26 PM 44.3342 -73.4269 190° South 314 361 13,300 1,983 Climbing Boston Center
Tue 04:10:27 PM 44.2319 -73.4542 191° South 359 413 15,400 2,200 Climbing Boston Center
Tue 04:11:00 PM 43.9773 -73.5808 187° South  Level FlightAware Approximate
Tue 04:11:26 PM 44.1275 -73.4783 189° South 380 437 17,700  Level Boston Center
Tue 04:12:00 PM 43.8650 -73.5986 186° South  Level FlightAware Approximate
Tue 04:12:26 PM 44.0250 -73.5056 191° South 385 443 20,500  Level Boston Center
Tue 04:13:26 PM 43.9186 -73.5294 189° South 390 449 22,000 750 Climbing Boston Center
Tue 04:14:26 PM 43.7892 -73.5617 190° South 421 484 22,000  Level Boston Center
Tue 04:15:26 PM 43.6639 -73.5911 190° South 458 527 22,000  Level Boston Center
Tue 04:16:26 PM 43.5364 -73.6200 189° South 465 535 22,000  Level Boston Center
Tue 04:17:26 PM 43.4089 -73.6489 189° South 465 535 22,000  Level Boston Center
Tue 04:18:26 PM 43.2856 -73.6778 190° South 465 535 22,000  Level Boston Center
Tue 04:19:26 PM 43.1625 -73.7067 190° South 465 535 22,000 -550 Level Boston Center
Tue 04:20:26 PM 43.0350 -73.7381 190° South 465 535 20,900 -1,190 Descending Boston Center
Tue 04:21:27 PM 42.9094 -73.7667 189° South 465 535 19,600 -1,250 Descending Boston Center
Tue 04:22:26 PM 42.8028 -73.7956 191° South 458 527 18,400 -1,500 Descending Boston Center
Tue 04:23:27 PM 42.6797 -73.8097 185° South 453 521 16,600 -1,200 Descending Boston Center
Tue 04:24:26 PM 42.5403 -73.8067 179° South 447 514 16,000 -350 Descending Boston Center
Tue 04:25:27 PM 42.4275 -73.8100 181° South 447 514 15,900 -843 Descending Boston Center
Tue 04:26:27 PM 42.2964 -73.8097 180° South 437 503 14,300 -1,550 Descending Boston Center
Tue 04:27:27 PM 42.1878 -73.8131 181° South 432 497 12,800 -1,150 Descending Boston Center
Tue 04:28:27 PM 42.0586 -73.8186 182° South 432 497 12,000 -403 Descending Boston Center
Tue 04:29:26 PM 41.9542 -73.8247 182° South 427 491 12,000 -50 Level Boston Center
Tue 04:30:26 PM 41.8247 -73.8414 185° South 422 486 11,900 -800 Descending Boston Center
Tue 04:31:26 PM 41.7331 -73.8478 183° South 395 455 10,400 -1,450 Descending Boston Center
Tue 04:32:26 PM 41.6411 -73.8594 185° South 339 390 9,000 -1,306 Descending Boston Center
Tue 04:33:30 PM 41.5500 -73.8667 183° South 289 333 7,700 -1,210 Descending New York TRACON
Tue 04:34:30 PM 41.4833 -73.8833 191° South 280 322 6,500 -1,150 Descending New York TRACON
Tue 04:35:30 PM 41.4000 -73.8500 163° South 295 339 5,400 -1,158 Descending New York TRACON
Tue 04:36:24 PM 41.3500 -73.8000 143° Southeast 287 330 4,300 -1,200 Descending New York TRACON
Tue 04:37:30 PM 41.2667 -73.7333 149° Southeast 281 323 3,000 -591 Descending New York TRACON
Tue 04:38:36 PM 41.2000 -73.6667 143° Southeast 282 325 3,000  Level New York TRACON
Tue 04:39:30 PM 41.1500 -73.6000 135° Southeast 282 325 3,000  Level New York TRACON
Tue 04:40:30 PM 41.1000 -73.5500 143° Southeast 230 265 3,000  Level New York TRACON
Tue 04:41:24 PM 41.0500 -73.5333 166° South 194 223 3,000 -450 Level New York TRACON
Tue 04:42:30 PM 41.0000 -73.5167 166° South 196 226 2,100 -476 Descending New York TRACON
Tue 04:43:30 PM 40.9667 -73.5500 217° Southwest 170 196 2,000 -50 Descending New York TRACON
Tue 04:44:30 PM 40.9500 -73.6000 246° West 136 157 2,000  Level New York TRACON
Tue 04:45:30 PM 40.9667 -73.6333 304° West 143 165 2,000 -158 Level New York TRACON
Tue 04:46:24 PM 41.0000 -73.6500 339° North 131 151 1,700 -474 Descending New York TRACON
Tue 04:47:24 PM 41.0333 -73.6833 323° Northwest 133 153 1,100 -600 Descending New York TRACON

Login

Don't have an account? Register now (free) for customized features, flight alerts, and more!